Time;durP1;ratioP1;P1;durP2;ratioP2;P2;SDS_P1;SDS_P2;PMS_P1;PMS_P2;Temp;Humidity;BMP_temperature;BMP_pressure;BME280_temperature;BME280_humidity;BME280_pressure;Samples;Min_cycle;Max_cycle;Signal;HPM_P1;HPM_P2
2022/01/28 00:04:48;;;;;;;17.33;8.60;;;;;;;;;;5018144;28;20036;-82
2022/01/28 00:07:14;;;;;;;24.33;9.48;;;;;;;;;;5024000;28;20038;-81
2022/01/28 00:09:39;;;;;;;13.02;4.93;;;;;;;;;;5026378;28;20128;-81
2022/01/28 00:12:07;;;;;;;13.88;5.72;;;;;;;;;;5029639;28;20095;-82
2022/01/28 00:38:53;;;;;;;13.40;5.80;;;;;;;;;;5023196;28;20037;-82
2022/01/28 00:41:19;;;;;;;12.32;6.32;;;;;;;;;;5020070;28;20044;-84
2022/01/28 00:43:44;;;;;;;18.98;6.70;;;;;;;;;;5022291;28;20108;-82
2022/01/28 00:46:10;;;;;;;10.23;5.60;;;;;;;;;;5021283;28;20492;-81
2022/01/28 00:48:36;;;;;;;15.43;6.35;;;;;;;;;;5022505;28;20084;-81
2022/01/28 00:51:02;;;;;;;17.55;7.45;;;;;;;;;;5021342;28;20021;-83
2022/01/28 00:53:27;;;;;;;25.90;11.63;;;;;;;;;;5026235;28;20032;-82
2022/01/28 00:55:54;;;;;;;13.63;6.90;;;;;;;;;;5023466;28;20057;-83
2022/01/28 00:58:20;;;;;;;11.57;5.90;;;;;;;;;;5022728;28;20088;-81
2022/01/28 01:00:46;;;;;;;11.07;5.80;;;;;;;;;;5026057;28;20389;-82
2022/01/28 01:03:12;;;;;;;16.10;8.52;;;;;;;;;;5022814;28;20041;-82
2022/01/28 01:05:37;;;;;;;16.20;5.57;;;;;;;;;;5018571;28;20038;-82
2022/01/28 01:08:05;;;;;;;12.18;6.47;;;;;;;;;;5020729;28;20057;-80
2022/01/28 01:10:31;;;;;;;16.67;5.95;;;;;;;;;;5018902;28;20082;-82
2022/01/28 01:12:56;;;;;;;17.92;8.13;;;;;;;;;;5021913;28;20033;-80
2022/01/28 01:15:26;;;;;;;16.40;6.47;;;;;;;;;;5016302;28;20049;-80
2022/01/28 01:23:05;;;;;;;14.98;6.80;;;;;;;;;;5029415;28;20045;-82
2022/01/28 01:25:33;;;;;;;13.70;6.40;;;;;;;;;;5021999;28;20030;-81
2022/01/28 01:27:58;;;;;;;16.73;6.05;;;;;;;;;;5023854;28;20025;-82
2022/01/28 01:30:28;;;;;;;10.85;6.00;;;;;;;;;;5023152;28;20028;-81
2022/01/28 01:32:53;;;;;;;18.13;7.82;;;;;;;;;;5017161;28;20448;-80
2022/01/28 01:35:19;;;;;;;19.70;7.25;;;;;;;;;;5019579;28;20129;-80
2022/01/28 01:37:45;;;;;;;24.55;9.45;;;;;;;;;;5012801;28;20026;-79
2022/01/28 01:40:11;;;;;;;16.27;9.25;;;;;;;;;;5020076;28;20030;-80
2022/01/28 01:42:48;;;;;;;11.77;7.13;;;;;;;;;;5019339;28;20022;-80
2022/01/28 01:53:26;;;;;;;18.48;8.98;;;;;;;;;;5022929;28;20393;-81
2022/01/28 01:55:52;;;;;;;15.73;6.15;;;;;;;;;;5015830;28;20025;-80
2022/01/28 01:58:24;;;;;;;14.57;5.80;;;;;;;;;;5018032;28;20104;-78
2022/01/28 02:00:49;;;;;;;24.83;5.50;;;;;;;;;;5010626;28;20029;-78
2022/01/28 02:03:15;;;;;;;11.35;5.63;;;;;;;;;;5015857;28;20033;-82
2022/01/28 02:05:40;;;;;;;19.08;7.40;;;;;;;;;;5019867;28;20103;-80
2022/01/28 02:08:06;;;;;;;17.92;6.30;;;;;;;;;;5016786;28;20033;-80
2022/01/28 02:10:33;;;;;;;16.23;6.45;;;;;;;;;;5012919;28;20381;-80
2022/01/28 02:12:59;;;;;;;20.08;7.80;;;;;;;;;;5018099;28;20021;-82
2022/01/28 02:15:25;;;;;;;11.75;5.45;;;;;;;;;;5014746;28;20037;-82
2022/01/28 02:17:50;;;;;;;19.40;7.15;;;;;;;;;;5021285;28;20029;-81
2022/01/28 02:20:30;;;;;;;13.70;6.70;;;;;;;;;;5021947;28;20029;-81
2022/01/28 02:22:56;;;;;;;;;;;;;;;;;;5019261;28;20045;-80
2022/01/28 02:25:22;;;;;;;6.82;3.85;;;;;;;;;;5016794;28;19913;-82
2022/01/28 02:27:48;;;;;;;16.92;5.53;;;;;;;;;;5016428;28;20029;-82
2022/01/28 02:30:14;;;;;;;10.85;5.53;;;;;;;;;;5017483;28;20382;-83
2022/01/28 02:32:39;;;;;;;12.30;5.65;;;;;;;;;;5026069;28;20033;-81
2022/01/28 02:35:05;;;;;;;11.95;6.18;;;;;;;;;;5023097;28;20041;-82
2022/01/28 02:37:31;;;;;;;22.00;6.35;;;;;;;;;;5019570;28;20025;-83
2022/01/28 02:39:56;;;;;;;17.98;7.68;;;;;;;;;;5018060;28;20034;-81
2022/01/28 02:42:33;;;;;;;9.80;6.13;;;;;;;;;;5018429;28;20037;-80
2022/01/28 02:45:01;;;;;;;11.90;5.95;;;;;;;;;;5015138;28;20030;-79
2022/01/28 02:47:34;;;;;;;17.65;5.72;;;;;;;;;;5018607;28;20030;-81
2022/01/28 02:50:02;;;;;;;8.65;4.85;;;;;;;;;;5015798;28;20034;-80
2022/01/28 02:52:43;;;;;;;9.57;5.72;;;;;;;;;;5021115;28;20022;-80
2022/01/28 02:55:12;;;;;;;15.93;3.92;;;;;;;;;;5017832;28;20109;-81
2022/01/28 02:57:43;;;;;;;10.68;5.35;;;;;;;;;;5019250;28;20469;-81
2022/01/28 03:00:09;;;;;;;14.15;5.63;;;;;;;;;;5012088;28;20487;-81
2022/01/28 03:02:34;;;;;;;10.18;4.97;;;;;;;;;;5030063;28;20124;-81
2022/01/28 03:07:28;;;;;;;11.77;5.20;;;;;;;;;;5020526;28;20112;-81
2022/01/28 03:12:48;;;;;;;8.00;4.28;;;;;;;;;;5026467;28;20115;-81
2022/01/28 03:15:19;;;;;;;17.83;9.65;;;;;;;;;;5023653;28;20466;-82
2022/01/28 03:17:56;;;;;;;15.00;4.45;;;;;;;;;;5026220;28;20108;-81
2022/01/28 03:22:47;;;;;;;12.70;4.82;;;;;;;;;;5019654;28;20137;-81
2022/01/28 03:25:15;;;;;;;17.17;8.68;;;;;;;;;;5015742;28;20036;-81
2022/01/28 03:30:15;;;;;;;18.30;6.72;;;;;;;;;;5024413;28;20496;-83
2022/01/28 03:32:40;;;;;;;10.57;5.65;;;;;;;;;;5022425;28;20021;-83
2022/01/28 03:35:06;;;;;;;18.13;6.68;;;;;;;;;;5020239;28;20461;-83
2022/01/28 03:37:31;;;;;;;20.55;6.40;;;;;;;;;;5017587;28;20033;-83
2022/01/28 03:39:57;;;;;;;16.13;6.70;;;;;;;;;;5019726;28;20104;-81
2022/01/28 03:42:22;;;;;;;14.65;7.07;;;;;;;;;;5017361;28;20029;-80
2022/01/28 03:44:48;;;;;;;16.92;8.75;;;;;;;;;;5016266;28;20034;-81
2022/01/28 03:47:13;;;;;;;13.75;6.32;;;;;;;;;;5016792;28;20202;-81
2022/01/28 03:49:39;;;;;;;21.83;7.88;;;;;;;;;;5014204;28;20466;-80
2022/01/28 03:52:05;;;;;;;16.17;7.88;;;;;;;;;;5009379;28;20362;-80
2022/01/28 03:54:30;;;;;;;12.65;7.50;;;;;;;;;;5018706;28;20129;-81
2022/01/28 03:56:56;;;;;;;20.73;8.75;;;;;;;;;;5021389;28;20399;-81
2022/01/28 03:59:21;;;;;;;15.02;7.20;;;;;;;;;;5017651;28;20033;-79
2022/01/28 04:01:49;;;;;;;10.45;5.07;;;;;;;;;;5019623;28;20029;-83
2022/01/28 04:12:27;;;;;;;13.35;4.90;;;;;;;;;;5019669;28;20496;-81
2022/01/28 04:17:24;;;;;;;16.92;7.00;;;;;;;;;;5020932;28;20057;-79
2022/01/28 04:19:51;;;;;;;10.05;5.20;;;;;;;;;;5025120;28;20030;-80
2022/01/28 04:22:17;;;;;;;15.02;6.35;;;;;;;;;;5020678;28;20113;-81
2022/01/28 04:24:43;;;;;;;11.75;5.65;;;;;;;;;;5013911;28;20040;-80
2022/01/28 04:27:08;;;;;;;15.30;6.75;;;;;;;;;;5023317;28;20100;-81
2022/01/28 04:29:34;;;;;;;9.65;4.97;;;;;;;;;;5014634;28;20060;-80
2022/01/28 04:32:00;;;;;;;11.90;5.45;;;;;;;;;;5018033;28;20464;-78
2022/01/28 04:34:26;;;;;;;13.40;5.95;;;;;;;;;;5018398;28;20475;-80
2022/01/28 04:40:07;;;;;;;11.57;5.78;;;;;;;;;;5020859;28;20448;-79
2022/01/28 04:47:17;;;;;;;15.25;5.70;;;;;;;;;;5017733;28;20072;-80
2022/01/28 04:50:26;;;;;;;24.80;11.00;;;;;;;;;;5015955;28;20474;-79
2022/01/28 05:08:28;;;;;;;12.68;6.07;;;;;;;;;;5019141;28;20378;-83
2022/01/28 05:28:48;;;;;;;13.20;7.22;;;;;;;;;;5021575;28;20052;-82
2022/01/28 05:31:13;;;;;;;13.55;6.20;;;;;;;;;;5024200;28;20033;-81
2022/01/28 05:33:39;;;;;;;17.05;7.00;;;;;;;;;;5025032;28;20025;-81
2022/01/28 05:36:05;;;;;;;12.18;6.22;;;;;;;;;;5019069;28;20117;-82
2022/01/28 05:38:30;;;;;;;20.77;7.55;;;;;;;;;;5018512;28;20034;-81
2022/01/28 05:40:55;;;;;;;21.55;10.07;;;;;;;;;;5025123;28;20045;-81
2022/01/28 05:43:21;;;;;;;18.02;9.48;;;;;;;;;;5022160;28;20029;-82
2022/01/28 05:45:46;;;;;;;15.13;6.95;;;;;;;;;;5020036;28;20033;-81
2022/01/28 05:48:12;;;;;;;22.48;9.68;;;;;;;;;;5022647;28;20382;-81
2022/01/28 05:50:38;;;;;;;22.25;11.85;;;;;;;;;;5020171;28;20021;-80
2022/01/28 05:53:03;;;;;;;24.08;9.10;;;;;;;;;;5018331;28;20206;-79
2022/01/28 05:55:29;;;;;;;21.90;10.20;;;;;;;;;;5015626;28;20487;-81
2022/01/28 05:57:55;;;;;;;20.08;8.02;;;;;;;;;;5016808;28;20040;-83
2022/01/28 06:00:20;;;;;;;17.00;8.23;;;;;;;;;;5016527;28;20037;-80
2022/01/28 06:02:46;;;;;;;18.10;7.85;;;;;;;;;;5011892;28;20108;-79
2022/01/28 06:05:12;;;;;;;22.52;8.93;;;;;;;;;;5018421;28;20026;-79
2022/01/28 06:07:43;;;;;;;21.15;8.85;;;;;;;;;;5019567;28;20142;-81
2022/01/28 06:10:11;;;;;;;12.00;6.28;;;;;;;;;;5012007;28;20021;-80
2022/01/28 06:12:43;;;;;;;13.40;8.77;;;;;;;;;;5010710;28;20076;-81
2022/01/28 06:15:10;;;;;;;17.75;5.85;;;;;;;;;;5015852;28;20481;-80
2022/01/28 06:17:36;;;;;;;16.58;5.38;;;;;;;;;;5012475;28;20053;-79
2022/01/28 06:20:04;;;;;;;14.32;6.55;;;;;;;;;;5014436;28;20478;-80
2022/01/28 06:22:30;;;;;;;13.23;6.13;;;;;;;;;;5015830;28;20140;-80
2022/01/28 06:24:56;;;;;;;13.98;6.40;;;;;;;;;;5012171;28;20117;-79
2022/01/28 06:27:23;;;;;;;16.92;6.70;;;;;;;;;;5016280;28;20060;-81
2022/01/28 06:29:49;;;;;;;22.25;10.40;;;;;;;;;;5014138;28;20022;-80
2022/01/28 06:32:16;;;;;;;24.88;10.75;;;;;;;;;;5012045;28;20397;-80
2022/01/28 06:34:42;;;;;;;17.55;8.32;;;;;;;;;;5014771;28;20033;-78
2022/01/28 06:37:07;;;;;;;19.15;8.38;;;;;;;;;;5012254;28;20030;-78
2022/01/28 06:39:33;;;;;;;19.08;8.90;;;;;;;;;;5010188;28;20101;-78
2022/01/28 06:41:59;;;;;;;24.60;9.63;;;;;;;;;;5011878;28;20028;-79
2022/01/28 06:44:25;;;;;;;18.25;8.98;;;;;;;;;;5010742;28;20366;-80
2022/01/28 06:46:52;;;;;;;27.33;10.68;;;;;;;;;;5010023;28;20030;-80
2022/01/28 06:49:18;;;;;;;26.17;11.82;;;;;;;;;;5010623;28;20445;-78
2022/01/28 06:51:44;;;;;;;22.83;13.60;;;;;;;;;;5009720;28;20394;-79
2022/01/28 06:54:09;;;;;;;31.05;14.32;;;;;;;;;;5011687;28;20021;-79
2022/01/28 06:56:35;;;;;;;39.15;15.82;;;;;;;;;;5010557;28;20041;-78
2022/01/28 06:59:00;;;;;;;28.92;10.82;;;;;;;;;;5010424;28;20029;-79
2022/01/28 07:01:26;;;;;;;23.27;11.73;;;;;;;;;;5010832;28;20031;-79
2022/01/28 07:03:51;;;;;;;25.05;13.13;;;;;;;;;;5007184;28;20040;-79
2022/01/28 07:06:17;;;;;;;33.50;14.95;;;;;;;;;;5010752;28;20025;-79
2022/01/28 07:08:42;;;;;;;24.38;9.98;;;;;;;;;;5010608;28;20034;-79
2022/01/28 07:11:09;;;;;;;23.90;9.35;;;;;;;;;;5010659;28;20021;-78
2022/01/28 07:13:34;;;;;;;26.63;10.63;;;;;;;;;;5009711;28;20030;-78
2022/01/28 07:16:00;;;;;;;27.98;11.25;;;;;;;;;;5010308;28;20401;-79
2022/01/28 07:18:25;;;;;;;26.85;10.48;;;;;;;;;;5010431;28;20032;-78
2022/01/28 07:20:51;;;;;;;30.80;12.45;;;;;;;;;;5010632;28;20036;-79
2022/01/28 07:23:16;;;;;;;26.13;11.80;;;;;;;;;;5012527;28;20034;-79
2022/01/28 07:25:42;;;;;;;29.50;13.32;;;;;;;;;;5016038;28;20112;-79
2022/01/28 07:28:08;;;;;;;25.02;11.45;;;;;;;;;;5022667;28;20033;-79
2022/01/28 07:30:33;;;;;;;27.75;11.68;;;;;;;;;;5009996;28;20033;-79
2022/01/28 07:33:00;;;;;;;24.83;11.63;;;;;;;;;;5009191;28;20029;-79
2022/01/28 07:35:26;;;;;;;25.73;12.50;;;;;;;;;;5009774;28;20034;-79
2022/01/28 07:37:52;;;;;;;24.17;12.05;;;;;;;;;;5019205;28;20420;-78
2022/01/28 07:40:18;;;;;;;27.85;11.93;;;;;;;;;;5016325;28;20029;-79
2022/01/28 07:42:43;;;;;;;34.60;13.02;;;;;;;;;;5013683;28;20045;-79
2022/01/28 07:45:11;;;;;;;24.13;11.63;;;;;;;;;;5008516;28;20088;-80
2022/01/28 07:47:37;;;;;;;49.45;21.83;;;;;;;;;;5017747;28;20465;-78
2022/01/28 07:50:05;;;;;;;37.60;19.13;;;;;;;;;;5010278;28;20030;-79
2022/01/28 07:52:30;;;;;;;46.53;20.83;;;;;;;;;;5014462;28;20362;-78
2022/01/28 07:54:56;;;;;;;27.45;14.10;;;;;;;;;;5016285;28;20028;-79
2022/01/28 07:57:21;;;;;;;32.95;14.38;;;;;;;;;;5018241;28;20036;-80
2022/01/28 07:59:47;;;;;;;27.20;11.82;;;;;;;;;;5014713;28;20508;-80
2022/01/28 08:02:13;;;;;;;38.97;15.45;;;;;;;;;;5013863;28;20064;-80
2022/01/28 08:04:39;;;;;;;29.88;15.38;;;;;;;;;;5019590;28;20429;-80
2022/01/28 08:07:05;;;;;;;32.20;14.80;;;;;;;;;;5017546;28;20105;-79
2022/01/28 08:09:31;;;;;;;28.40;11.38;;;;;;;;;;5014599;28;20050;-79
2022/01/28 08:11:56;;;;;;;32.85;14.35;;;;;;;;;;5014840;28;20097;-79
2022/01/28 08:14:22;;;;;;;23.58;13.38;;;;;;;;;;5014374;28;20030;-78
2022/01/28 08:16:47;;;;;;;31.20;12.45;;;;;;;;;;5013961;28;20165;-79
2022/01/28 08:19:13;;;;;;;22.55;11.05;;;;;;;;;;5013645;28;20029;-77
2022/01/28 08:21:38;;;;;;;29.42;12.43;;;;;;;;;;5015901;28;20505;-79
2022/01/28 08:24:04;;;;;;;30.42;13.48;;;;;;;;;;5013094;28;20042;-79
2022/01/28 08:26:29;;;;;;;34.17;15.68;;;;;;;;;;5017277;28;20034;-79
2022/01/28 08:28:55;;;;;;;34.70;15.30;;;;;;;;;;5012356;28;20478;-79
2022/01/28 08:31:20;;;;;;;25.63;12.27;;;;;;;;;;5013219;28;20030;-79
2022/01/28 08:33:46;;;;;;;29.02;10.82;;;;;;;;;;5013086;28;20022;-79
2022/01/28 08:36:12;;;;;;;31.05;11.82;;;;;;;;;;5012868;28;20370;-78
2022/01/28 08:38:44;;;;;;;20.52;11.93;;;;;;;;;;5010519;28;20030;-79
2022/01/28 08:41:12;;;;;;;23.67;11.73;;;;;;;;;;5013304;28;20021;-79
2022/01/28 08:43:41;;;;;;;27.02;12.32;;;;;;;;;;5012134;28;20036;-80
2022/01/28 08:46:07;;;;;;;25.98;11.65;;;;;;;;;;5012598;28;20519;-78
2022/01/28 08:48:32;;;;;;;20.15;9.93;;;;;;;;;;5014007;28;20037;-80
2022/01/28 08:50:58;;;;;;;17.33;10.13;;;;;;;;;;5015275;28;20080;-79
2022/01/28 08:53:24;;;;;;;24.98;10.43;;;;;;;;;;5017690;28;20402;-80
2022/01/28 08:55:49;;;;;;;26.40;10.70;;;;;;;;;;5013504;28;20466;-79
2022/01/28 08:58:15;;;;;;;27.92;12.18;;;;;;;;;;5014439;28;20034;-79
2022/01/28 09:00:45;;;;;;;21.55;11.00;;;;;;;;;;5013969;28;20021;-79
2022/01/28 09:03:21;;;;;;;31.13;12.70;;;;;;;;;;5018375;28;20021;-78
2022/01/28 09:05:47;;;;;;;26.90;11.27;;;;;;;;;;5013723;28;20113;-80
2022/01/28 09:08:13;;;;;;;23.15;11.32;;;;;;;;;;5015424;28;20038;-79
2022/01/28 09:10:43;;;;;;;24.10;11.75;;;;;;;;;;5012962;28;20112;-79
2022/01/28 09:13:21;;;;;;;23.52;12.18;;;;;;;;;;5016491;28;20025;-79
2022/01/28 09:15:47;;;;;;;18.48;11.02;;;;;;;;;;5011818;28;20393;-79
2022/01/28 09:18:13;;;;;;;23.88;11.95;;;;;;;;;;5015617;28;20022;-79
2022/01/28 09:20:38;;;;;;;22.75;12.00;;;;;;;;;;5013887;28;20359;-79
2022/01/28 09:23:05;;;;;;;27.40;12.45;;;;;;;;;;5031517;28;20046;-80
2022/01/28 09:25:30;;;;;;;28.48;12.45;;;;;;;;;;5013754;28;20025;-79
2022/01/28 09:27:56;;;;;;;31.20;14.07;;;;;;;;;;5015257;28;20180;-79
2022/01/28 09:30:22;;;;;;;28.55;14.70;;;;;;;;;;5017786;28;20072;-78
2022/01/28 09:32:47;;;;;;;28.25;15.02;;;;;;;;;;5019733;28;20037;-80
2022/01/28 09:35:13;;;;;;;30.20;14.50;;;;;;;;;;5013770;28;20036;-79
2022/01/28 09:37:39;;;;;;;29.48;14.05;;;;;;;;;;5016935;28;20018;-80
2022/01/28 09:40:05;;;;;;;32.10;14.60;;;;;;;;;;5011505;28;20021;-78
2022/01/28 09:42:35;;;;;;;30.67;14.55;;;;;;;;;;5011063;28;20532;-80
2022/01/28 09:45:04;;;;;;;27.15;15.48;;;;;;;;;;5016460;28;20017;-78
2022/01/28 09:47:30;;;;;;;33.95;16.98;;;;;;;;;;5016891;28;20055;-79
2022/01/28 09:49:56;;;;;;;36.72;16.75;;;;;;;;;;5016284;28;20064;-79
2022/01/28 09:52:22;;;;;;;44.22;19.45;;;;;;;;;;5011164;28;20034;-79
2022/01/28 09:54:47;;;;;;;34.63;17.70;;;;;;;;;;5014478;28;20507;-79
2022/01/28 09:57:18;;;;;;;41.88;19.50;;;;;;;;;;5019684;28;20022;-78
2022/01/28 09:59:43;;;;;;;44.75;19.95;;;;;;;;;;5009852;28;20064;-78
2022/01/28 10:02:09;;;;;;;41.30;21.40;;;;;;;;;;5012838;28;20026;-78
2022/01/28 10:04:35;;;;;;;43.35;22.00;;;;;;;;;;5013320;28;20142;-77
2022/01/28 10:07:15;;;;;;;40.80;18.77;;;;;;;;;;5011626;28;20707;-79
2022/01/28 10:09:58;;;;;;;38.80;18.35;;;;;;;;;;5011515;28;20113;-78
2022/01/28 10:12:34;;;;;;;34.97;19.35;;;;;;;;;;5030023;28;20022;-78
2022/01/28 10:15:05;;;;;;;35.50;17.48;;;;;;;;;;5011090;28;20445;-78
2022/01/28 10:17:49;;;;;;;32.58;17.73;;;;;;;;;;5010229;28;20045;-78
2022/01/28 10:20:15;;;;;;;43.50;17.63;;;;;;;;;;5009423;28;20029;-78
2022/01/28 10:22:54;;;;;;;35.63;17.17;;;;;;;;;;5011797;28;20104;-78
2022/01/28 10:25:34;;;;;;;44.35;18.90;;;;;;;;;;5010111;28;20022;-78
2022/01/28 10:28:08;;;;;;;40.20;19.38;;;;;;;;;;5014256;28;20381;-78
2022/01/28 10:30:38;;;;;;;42.28;17.88;;;;;;;;;;5009251;28;20107;-79
2022/01/28 10:33:21;;;;;;;37.17;17.88;;;;;;;;;;5010879;28;20152;-79
2022/01/28 10:35:52;;;;;;;38.33;19.38;;;;;;;;;;5013156;28;20022;-78
2022/01/28 10:38:36;;;;;;;40.78;18.45;;;;;;;;;;5010845;28;20485;-78
2022/01/28 10:41:16;;;;;;;41.00;20.27;;;;;;;;;;5012518;28;20086;-80
2022/01/28 10:43:46;;;;;;;39.90;19.38;;;;;;;;;;5010101;28;20113;-78
2022/01/28 10:46:12;;;;;;;47.10;20.48;;;;;;;;;;5011161;28;20433;-78
2022/01/28 10:48:52;;;;;;;39.95;22.00;;;;;;;;;;5009681;28;20030;-79
2022/01/28 10:51:19;;;;;;;;;;;;;;;;;;5010456;28;20030;-78
2022/01/28 10:54:06;;;;;;;47.75;23.70;;;;;;;;;;5008859;28;19967;-78
2022/01/28 10:56:47;;;;;;;52.90;25.35;;;;;;;;;;5025085;28;20371;-79
2022/01/28 10:59:18;;;;;;;51.33;25.83;;;;;;;;;;5009006;28;20037;-79
2022/01/28 11:01:45;;;;;;;54.33;26.98;;;;;;;;;;5010619;28;20029;-77
2022/01/28 11:04:12;;;;;;;51.75;27.15;;;;;;;;;;5016015;28;20417;-78
2022/01/28 11:06:41;;;;;;;51.85;26.60;;;;;;;;;;5009275;28;20500;-78
2022/01/28 11:09:08;;;;;;;57.28;28.42;;;;;;;;;;5010448;28;20026;-77
2022/01/28 11:11:34;;;;;;;55.53;26.75;;;;;;;;;;5009588;28;20043;-79
2022/01/28 11:13:59;;;;;;;55.13;27.67;;;;;;;;;;5014143;28;20112;-79
2022/01/28 11:16:26;;;;;;;57.05;28.83;;;;;;;;;;5014806;28;20034;-79
2022/01/28 11:18:53;;;;;;;57.05;29.08;;;;;;;;;;5011500;28;20121;-79
2022/01/28 11:21:27;;;;;;;61.15;31.20;;;;;;;;;;5010306;28;20026;-79
2022/01/28 11:24:05;;;;;;;66.72;32.40;;;;;;;;;;5008738;28;20149;-78
2022/01/28 11:27:06;;;;;;;59.58;30.33;;;;;;;;;;5016532;28;20061;-80
2022/01/28 11:29:32;;;;;;;62.97;32.28;;;;;;;;;;5015393;28;20440;-79
2022/01/28 11:32:10;;;;;;;26.77;12.38;;;;;;;;;;5017554;28;20038;-79
2022/01/28 11:34:36;;;;;;;15.82;7.15;;;;;;;;;;5017318;28;20038;-80
2022/01/28 11:37:04;;;;;;;4.95;2.45;;;;;;;;;;5019796;28;20103;-79
2022/01/28 11:39:36;;;;;;;3.03;1.95;;;;;;;;;;5021444;28;20091;-77
2022/01/28 11:42:13;;;;;;;2.53;1.88;;;;;;;;;;5018494;28;20473;-79
2022/01/28 11:44:45;;;;;;;10.63;4.70;;;;;;;;;;5016487;28;20444;-79
2022/01/28 11:47:23;;;;;;;8.82;4.38;;;;;;;;;;5013752;28;20557;-80
2022/01/28 11:50:00;;;;;;;11.15;5.32;;;;;;;;;;5015183;28;20029;-80
2022/01/28 11:52:30;;;;;;;8.93;3.90;;;;;;;;;;5016495;28;20029;-78
2022/01/28 11:55:24;;;;;;;7.72;3.90;;;;;;;;;;5022944;28;20033;-79
2022/01/28 11:57:49;;;;;;;11.68;5.88;;;;;;;;;;5015468;28;20036;-78
2022/01/28 12:00:39;;;;;;;4.65;2.33;;;;;;;;;;5015519;28;20029;-80
2022/01/28 12:03:23;;;;;;;7.78;4.38;;;;;;;;;;5019627;28;20480;-78
2022/01/28 12:05:54;;;;;;;3.40;2.05;;;;;;;;;;5015258;28;20030;-77
2022/01/28 12:08:20;;;;;;;8.13;3.28;;;;;;;;;;5018515;28;20040;-82
2022/01/28 12:10:49;;;;;;;10.48;4.32;;;;;;;;;;5023760;28;20029;-78
2022/01/28 12:13:21;;;;;;;5.15;2.53;;;;;;;;;;5023481;28;20033;-79
2022/01/28 12:16:11;;;;;;;10.75;4.25;;;;;;;;;;5016333;28;20381;-79
2022/01/28 12:18:45;;;;;;;5.20;2.65;;;;;;;;;;5020659;28;20026;-80
2022/01/28 12:21:16;;;;;;;3.47;2.33;;;;;;;;;;5022181;28;20079;-82
2022/01/28 12:23:46;;;;;;;5.85;3.03;;;;;;;;;;5019356;28;20041;-78
2022/01/28 12:27:01;;;;;;;4.32;2.30;;;;;;;;;;5027067;28;20030;-82
2022/01/28 12:29:32;;;;;;;4.32;2.05;;;;;;;;;;5013795;28;20484;-79
2022/01/28 12:31:59;;;;;;;3.67;1.80;;;;;;;;;;5022013;28;20029;-81
2022/01/28 12:34:25;;;;;;;2.83;1.83;;;;;;;;;;5018936;28;20489;-80
2022/01/28 12:36:51;;;;;;;2.05;1.25;;;;;;;;;;5019800;28;20029;-85
2022/01/28 12:39:32;;;;;;;5.22;3.13;;;;;;;;;;5021390;28;20033;-83
2022/01/28 12:42:06;;;;;;;4.35;1.95;;;;;;;;;;5022658;28;20025;-85
2022/01/28 12:44:33;;;;;;;4.35;2.60;;;;;;;;;;5019701;28;20485;-82
2022/01/28 12:47:02;;;;;;;2.47;1.40;;;;;;;;;;5016856;28;20397;-81
2022/01/28 12:49:31;;;;;;;4.65;2.65;;;;;;;;;;5015725;28;20029;-80
2022/01/28 12:52:00;;;;;;;3.63;2.08;;;;;;;;;;5019363;28;20068;-80
2022/01/28 12:54:34;;;;;;;9.32;3.63;;;;;;;;;;5025276;28;20075;-81
2022/01/28 12:57:00;;;;;;;6.30;2.50;;;;;;;;;;5021091;28;20164;-82
2022/01/28 12:59:25;;;;;;;6.22;2.50;;;;;;;;;;5025746;28;20532;-78
2022/01/28 13:01:55;;;;;;;6.47;3.38;;;;;;;;;;5022393;28;20018;-80
2022/01/28 13:04:24;;;;;;;3.03;1.55;;;;;;;;;;5028451;28;20033;-78
2022/01/28 13:09:18;;;;;;;7.18;3.30;;;;;;;;;;5025084;28;20060;-80
2022/01/28 13:11:44;;;;;;;7.38;3.40;;;;;;;;;;5018610;28;20037;-83
2022/01/28 13:14:11;;;;;;;8.80;3.33;;;;;;;;;;5019168;28;20029;-81
2022/01/28 13:16:43;;;;;;;6.97;3.03;;;;;;;;;;5018970;28;20025;-83
2022/01/28 13:19:12;;;;;;;9.43;4.10;;;;;;;;;;5019061;28;20732;-81
2022/01/28 13:21:39;;;;;;;8.50;3.63;;;;;;;;;;5015747;28;20035;-83
2022/01/28 13:24:13;;;;;;;5.43;2.22;;;;;;;;;;5020248;28;20037;-82
2022/01/28 13:27:06;;;;;;;4.15;2.90;;;;;;;;;;5019418;28;20029;-83
2022/01/28 13:29:44;;;;;;;9.65;4.53;;;;;;;;;;5017135;28;20033;-84
2022/01/28 13:32:13;;;;;;;9.02;4.47;;;;;;;;;;5025058;28;20060;-83
2022/01/28 13:34:54;;;;;;;10.63;4.30;;;;;;;;;;5028465;28;20033;-82
2022/01/28 13:37:39;;;;;;;8.85;4.60;;;;;;;;;;5020839;28;20021;-82
2022/01/28 13:40:06;;;;;;;7.32;4.13;;;;;;;;;;5017037;28;21035;-82
2022/01/28 13:42:32;;;;;;;11.65;6.00;;;;;;;;;;5019126;28;20463;-80
2022/01/28 13:45:03;;;;;;;7.93;3.47;;;;;;;;;;5015107;28;20021;-80
2022/01/28 13:47:47;;;;;;;6.03;3.22;;;;;;;;;;5015977;28;20037;-84
2022/01/28 13:50:23;;;;;;;9.98;5.20;;;;;;;;;;5011500;28;20104;-81
2022/01/28 13:52:53;;;;;;;11.52;5.10;;;;;;;;;;5022143;28;20110;-80
2022/01/28 13:55:35;;;;;;;10.23;5.57;;;;;;;;;;5015071;28;20529;-80
2022/01/28 13:58:03;;;;;;;9.13;5.47;;;;;;;;;;5023379;28;20065;-83
2022/01/28 14:00:36;;;;;;;18.73;8.32;;;;;;;;;;5016729;28;20122;-80
2022/01/28 14:03:01;;;;;;;11.00;5.53;;;;;;;;;;5013265;28;20108;-83
2022/01/28 14:05:51;;;;;;;30.20;12.60;;;;;;;;;;5019332;28;20108;-81
2022/01/28 14:08:45;;;;;;;9.90;5.33;;;;;;;;;;5013839;28;20056;-80
2022/01/28 14:11:37;;;;;;;9.73;5.68;;;;;;;;;;5015848;28;20026;-81
2022/01/28 14:14:09;;;;;;;7.20;4.15;;;;;;;;;;5027268;28;20060;-82
2022/01/28 14:16:35;;;;;;;6.95;3.85;;;;;;;;;;5010054;28;20026;-81
2022/01/28 14:19:01;;;;;;;9.68;4.43;;;;;;;;;;5015960;28;20045;-81
2022/01/28 14:21:26;;;;;;;9.32;5.47;;;;;;;;;;5027213;28;20056;-78
2022/01/28 14:23:52;;;;;;;8.40;4.00;;;;;;;;;;5011751;28;20103;-79
2022/01/28 14:26:19;;;;;;;10.05;5.38;;;;;;;;;;5014788;28;20381;-78
2022/01/28 14:31:17;;;;;;;31.45;12.70;;;;;;;;;;5016462;28;20058;-80
2022/01/28 14:33:45;;;;;;;8.80;4.55;;;;;;;;;;5018228;28;20395;-77
2022/01/28 14:36:11;;;;;;;5.38;3.42;;;;;;;;;;5011998;28;20033;-78
2022/01/28 14:38:36;;;;;;;9.80;4.25;;;;;;;;;;5010162;28;20038;-78
2022/01/28 14:41:02;;;;;;;10.10;6.05;;;;;;;;;;5012320;28;20127;-79
2022/01/28 14:43:27;;;;;;;11.68;6.30;;;;;;;;;;5012285;28;20036;-77
2022/01/28 14:45:52;;;;;;;9.02;4.97;;;;;;;;;;5014009;28;20385;-80
2022/01/28 14:48:21;;;;;;;10.07;5.13;;;;;;;;;;5014203;28;20018;-80
2022/01/28 14:50:48;;;;;;;6.75;4.10;;;;;;;;;;5017187;28;20104;-78
2022/01/28 14:53:13;;;;;;;16.48;7.70;;;;;;;;;;5011983;28;20112;-79
2022/01/28 14:55:41;;;;;;;15.50;8.82;;;;;;;;;;5017112;28;20446;-80
2022/01/28 14:58:07;;;;;;;9.38;5.43;;;;;;;;;;5018306;28;20121;-81
2022/01/28 15:00:32;;;;;;;8.57;4.45;;;;;;;;;;5011911;28;20108;-81
2022/01/28 15:02:59;;;;;;;8.93;4.88;;;;;;;;;;5017421;28;20028;-80
2022/01/28 15:05:26;;;;;;;8.25;4.28;;;;;;;;;;5010487;28;20036;-80
2022/01/28 15:07:51;;;;;;;5.18;3.00;;;;;;;;;;5010808;28;20029;-78
2022/01/28 15:10:26;;;;;;;7.32;3.15;;;;;;;;;;5010602;28;20021;-79
2022/01/28 15:12:51;;;;;;;4.18;2.35;;;;;;;;;;5010983;28;20036;-80
2022/01/28 15:15:17;;;;;;;8.38;3.47;;;;;;;;;;5015696;28;20100;-82
2022/01/28 15:17:43;;;;;;;6.60;3.55;;;;;;;;;;5015579;28;20029;-80
2022/01/28 15:20:09;;;;;;;8.20;4.78;;;;;;;;;;5010437;28;20537;-79
2022/01/28 15:22:35;;;;;;;6.38;4.00;;;;;;;;;;5010063;28;20034;-81
2022/01/28 15:25:04;;;;;;;5.45;3.67;;;;;;;;;;5022601;28;20458;-79
2022/01/28 15:27:31;;;;;;;6.88;3.55;;;;;;;;;;5017193;28;20060;-82
2022/01/28 15:36:02;;;;;;;3.30;2.15;;;;;;;;;;5018115;28;20031;-80
2022/01/28 15:38:21;;;;;;;5.47;2.70;;;;;;;;;;5017776;28;20049;-80
2022/01/28 15:40:46;;;;;;;7.60;3.78;;;;;;;;;;5018160;28;20101;-80
2022/01/28 15:43:12;;;;;;;4.75;3.35;;;;;;;;;;5019677;28;20052;-82
2022/01/28 15:45:40;;;;;;;7.60;3.10;;;;;;;;;;5016202;28;20050;-84
2022/01/28 15:48:05;;;;;;;5.68;2.63;;;;;;;;;;5014214;28;20041;-83
2022/01/28 15:50:31;;;;;;;3.85;2.28;;;;;;;;;;5019157;28;20030;-84
2022/01/28 15:52:56;;;;;;;4.82;2.75;;;;;;;;;;5017110;28;20026;-81
2022/01/28 15:55:22;;;;;;;4.30;2.05;;;;;;;;;;5017838;28;20044;-85
2022/01/28 15:57:48;;;;;;;7.45;3.83;;;;;;;;;;5019313;28;20021;-84
2022/01/28 16:00:14;;;;;;;6.15;2.35;;;;;;;;;;5009701;28;20474;-86
2022/01/28 16:02:40;;;;;;;4.68;3.05;;;;;;;;;;5016341;28;20021;-83
2022/01/28 16:05:05;;;;;;;3.53;2.03;;;;;;;;;;5017385;28;20041;-80
2022/01/28 16:07:31;;;;;;;6.15;2.75;;;;;;;;;;5015370;28;20037;-83
2022/01/28 16:10:06;;;;;;;4.57;2.80;;;;;;;;;;5017674;28;20025;-83
2022/01/28 16:15:27;;;;;;;4.55;3.22;;;;;;;;;;5025349;28;20034;-83
2022/01/28 16:17:53;;;;;;;4.80;3.28;;;;;;;;;;5024235;28;20057;-80
2022/01/28 16:20:19;;;;;;;4.80;3.28;;;;;;;;;;5018607;28;20500;-82
2022/01/28 16:22:44;;;;;;;5.60;3.08;;;;;;;;;;5019579;28;20034;-80
2022/01/28 16:25:11;;;;;;;7.28;4.70;;;;;;;;;;5020418;28;20029;-80
2022/01/28 16:27:36;;;;;;;8.23;6.20;;;;;;;;;;5018590;28;20056;-80
2022/01/28 16:30:06;;;;;;;6.43;4.22;;;;;;;;;;5016458;28;20034;-78
2022/01/28 16:32:32;;;;;;;5.03;3.08;;;;;;;;;;5017320;28;20041;-78
2022/01/28 16:34:58;;;;;;;5.50;4.25;;;;;;;;;;5017967;28;20033;-78
2022/01/28 16:37:23;;;;;;;5.25;3.65;;;;;;;;;;5025346;28;20075;-77